createdAt,value
2023-03-20T00:02:24.044Z,3.22
2023-03-20T00:04:55.748Z,3.22
2023-03-20T00:07:25.101Z,3.18
2023-03-20T00:10:02.742Z,3.15
2023-03-20T00:12:51.977Z,3.12
2023-03-20T00:15:35.830Z,3.06
2023-03-20T00:18:05.193Z,3.01
2023-03-20T00:20:42.043Z,2.95
2023-03-20T00:23:13.793Z,2.87
2023-03-20T00:25:42.447Z,2.82
2023-03-20T00:28:34.969Z,2.76
2023-03-20T00:31:05.137Z,2.70
2023-03-20T00:33:33.166Z,2.66
2023-03-20T00:36:01.845Z,2.62
2023-03-20T00:38:33.364Z,2.58
2023-03-20T00:41:02.503Z,2.61
2023-03-20T00:43:32.623Z,2.68
2023-03-20T00:46:04.074Z,2.73
2023-03-20T00:48:33.173Z,2.78
2023-03-20T00:51:01.468Z,2.86
2023-03-20T00:53:29.691Z,2.90
2023-03-20T00:55:58.105Z,2.90
2023-03-20T00:58:32.021Z,2.86
2023-03-20T01:01:01.678Z,2.81
2023-03-20T01:03:32.234Z,2.78
2023-03-20T01:06:00.282Z,2.72
2023-03-20T01:08:30.094Z,2.63
2023-03-20T01:10:59.063Z,2.55
2023-03-20T01:13:28.546Z,2.50
2023-03-20T01:15:58.280Z,2.45
2023-03-20T01:18:27.478Z,2.39
2023-03-20T01:20:55.971Z,2.30
2023-03-20T01:23:27.019Z,2.28
2023-03-20T01:26:01.383Z,2.24
2023-03-20T01:28:29.772Z,2.20
2023-03-20T01:30:57.964Z,2.15
2023-03-20T01:33:47.006Z,2.09
2023-03-20T01:36:16.440Z,2.08
2023-03-20T01:38:44.637Z,2.07
2023-03-20T01:41:18.344Z,2.10
2023-03-20T01:43:46.580Z,2.17
2023-03-20T01:46:20.015Z,2.20
2023-03-20T01:48:50.281Z,2.26
2023-03-20T01:51:24.461Z,2.33
2023-03-20T01:53:55.296Z,2.37
2023-03-20T01:56:30.686Z,2.39
2023-03-20T01:59:03.679Z,2.38
2023-03-20T02:01:32.172Z,2.37
2023-03-20T02:04:01.452Z,2.36
2023-03-20T02:06:51.510Z,2.30
2023-03-20T02:09:37.860Z,2.26
2023-03-20T02:12:11.134Z,2.23
2023-03-20T02:14:39.533Z,2.17
2023-03-20T02:17:24.289Z,2.11
2023-03-20T02:20:28.749Z,2.05
2023-03-20T02:23:31.732Z,1.98
2023-03-20T02:26:22.799Z,1.94
2023-03-20T02:29:18.732Z,1.90
2023-03-20T02:31:54.423Z,1.88
2023-03-20T02:34:46.308Z,1.87
2023-03-20T02:37:38.983Z,1.92
2023-03-20T02:40:46.346Z,2.00
2023-03-20T02:43:38.187Z,2.09
2023-03-20T02:46:18.786Z,2.18
2023-03-20T02:48:55.843Z,2.28
2023-03-20T02:51:32.285Z,2.34
2023-03-20T02:54:06.611Z,2.36
2023-03-20T02:56:51.600Z,2.35
2023-03-20T02:59:41.583Z,2.34
2023-03-20T03:02:14.294Z,2.32
2023-03-20T03:04:47.659Z,2.26
2023-03-20T03:07:18.175Z,2.20
2023-03-20T03:09:58.532Z,2.14
2023-03-20T03:12:36.507Z,2.08
2023-03-20T03:15:16.487Z,2.00
2023-03-20T03:17:49.337Z,1.91
2023-03-20T03:20:35.172Z,1.83
2023-03-20T03:23:03.849Z,1.75
2023-03-20T03:25:37.654Z,1.68
2023-03-20T03:28:09.722Z,1.62
2023-03-20T03:30:38.716Z,1.58
2023-03-20T03:33:47.232Z,1.56
2023-03-20T03:36:36.422Z,1.55
2023-03-20T03:39:07.952Z,1.54
2023-03-20T03:41:45.972Z,1.52
2023-03-20T03:44:27.140Z,1.56
2023-03-20T03:47:02.939Z,1.61
2023-03-20T03:49:33.389Z,1.65
2023-03-20T03:52:13.916Z,1.71
2023-03-20T03:55:06.911Z,1.79
2023-03-20T03:57:38.144Z,1.88
2023-03-20T04:00:13.816Z,1.92
2023-03-20T04:02:43.584Z,1.94
2023-03-20T04:05:17.431Z,1.94
2023-03-20T04:07:47.893Z,1.91
2023-03-20T04:10:16.188Z,1.90
2023-03-20T04:12:55.496Z,1.86
2023-03-20T04:15:23.673Z,1.78
2023-03-20T04:17:52.062Z,1.72
2023-03-20T04:20:20.433Z,1.67
2023-03-20T04:22:49.245Z,1.64
2023-03-20T04:25:22.725Z,1.61
2023-03-20T04:27:54.091Z,1.60
2023-03-20T04:30:33.916Z,1.60
2023-03-20T04:33:29.275Z,1.61
2023-03-20T04:36:06.633Z,1.62
2023-03-20T04:50:30.473Z,2.14
2023-03-20T04:53:00.517Z,2.78
2023-03-20T04:55:29.998Z,2.81
2023-03-20T04:57:58.290Z,2.78
2023-03-20T05:00:27.652Z,2.76
2023-03-20T05:02:56.365Z,2.73
2023-03-20T05:05:25.869Z,2.77
2023-03-20T05:08:01.009Z,2.86
2023-03-20T05:10:37.677Z,2.93
2023-03-20T05:13:34.794Z,3.03
2023-03-20T05:16:23.015Z,3.13
2023-03-20T05:19:07.195Z,3.21
2023-03-20T05:21:55.939Z,3.30
2023-03-20T05:24:50.789Z,3.37
2023-03-20T05:27:38.205Z,3.39
2023-03-20T05:30:25.450Z,3.40
2023-03-20T05:32:59.910Z,3.41
2023-03-20T05:35:28.147Z,3.40
2023-03-20T05:38:13.399Z,3.42
2023-03-20T05:40:47.215Z,3.42
2023-03-20T05:43:29.453Z,3.42
2023-03-20T05:46:26.472Z,3.43
2023-03-20T05:49:18.116Z,3.44
2023-03-20T05:52:05.584Z,3.47
2023-03-20T05:54:44.274Z,3.56
2023-03-20T05:57:48.261Z,3.69
2023-03-20T06:00:48.985Z,3.82
2023-03-20T06:03:49.009Z,3.96
2023-03-20T06:06:18.820Z,4.11
2023-03-20T06:08:50.044Z,4.22
2023-03-20T06:11:19.125Z,4.34
2023-03-20T06:13:47.992Z,4.45
2023-03-20T06:16:16.495Z,4.52
2023-03-20T06:18:46.688Z,4.54
2023-03-20T06:21:15.969Z,4.57
2023-03-20T06:23:44.460Z,4.61
2023-03-20T06:26:13.236Z,4.65
2023-03-20T06:28:53.134Z,4.67
2023-03-20T06:31:22.187Z,4.70
2023-03-20T06:33:51.161Z,4.75
2023-03-20T06:36:19.749Z,4.85
2023-03-20T06:38:51.918Z,5.00
2023-03-20T06:41:33.764Z,5.14
2023-03-20T06:44:09.153Z,5.31
2023-03-20T06:46:56.650Z,5.49
2023-03-20T06:49:25.775Z,5.65
2023-03-20T06:51:54.262Z,5.75
2023-03-20T06:54:27.356Z,5.85
2023-03-20T06:56:56.348Z,5.93
2023-03-20T06:59:24.461Z,6.01
2023-03-20T07:01:57.426Z,6.05
2023-03-20T07:04:26.619Z,6.09
2023-03-20T07:07:01.735Z,6.16
2023-03-20T07:09:30.552Z,6.25
2023-03-20T07:11:58.915Z,6.32
2023-03-20T07:14:32.092Z,6.45
2023-03-20T07:17:05.801Z,6.63
2023-03-20T07:19:38.144Z,6.75
2023-03-20T07:22:08.607Z,6.86
2023-03-20T07:24:40.793Z,6.94
2023-03-20T07:27:14.689Z,6.98
2023-03-20T07:29:44.196Z,7.03
2023-03-20T07:32:14.423Z,7.07
2023-03-20T07:34:51.445Z,7.09
2023-03-20T07:37:21.149Z,7.08
2023-03-20T07:40:01.879Z,7.05
2023-03-20T07:42:56.663Z,7.06
2023-03-20T07:45:44.076Z,7.10
2023-03-20T07:48:13.184Z,7.15
2023-03-20T07:50:41.472Z,7.25
2023-03-20T07:53:10.872Z,7.36
2023-03-20T07:55:40.171Z,7.46
2023-03-20T07:58:11.412Z,7.54
2023-03-20T08:00:41.536Z,7.60
2023-03-20T08:03:10.244Z,7.65
2023-03-20T08:05:38.953Z,7.71
2023-03-20T08:08:08.112Z,7.76
2023-03-20T08:10:36.481Z,7.83
2023-03-20T08:13:05.316Z,7.90
2023-03-20T08:15:33.766Z,7.96
2023-03-20T08:18:02.187Z,8.02
2023-03-20T08:20:31.793Z,8.08
2023-03-20T08:23:00.640Z,8.13
2023-03-20T08:25:34.924Z,8.21
2023-03-20T08:28:03.946Z,8.28
2023-03-20T08:30:32.372Z,8.35
2023-03-20T08:33:02.512Z,8.43
2023-03-20T08:35:45.572Z,8.50
2023-03-20T08:38:15.815Z,8.57
2023-03-20T08:40:44.381Z,8.63
2023-03-20T08:43:12.758Z,8.68
2023-03-20T08:45:44.125Z,8.72
2023-03-20T08:48:13.308Z,8.79
2023-03-20T08:50:44.967Z,8.85
2023-03-20T08:53:13.382Z,8.92
2023-03-20T08:55:49.274Z,8.99
2023-03-20T08:58:18.524Z,9.06
2023-03-20T09:00:46.933Z,9.13
2023-03-20T09:03:16.478Z,9.20
2023-03-20T09:05:46.703Z,9.27
2023-03-20T09:08:15.181Z,9.34
2023-03-20T09:10:44.757Z,9.42
2023-03-20T09:13:26.589Z,9.51
2023-03-20T09:15:56.097Z,9.61
2023-03-20T09:18:24.594Z,9.69
2023-03-20T09:20:52.955Z,9.77
2023-03-20T09:23:21.332Z,9.86
2023-03-20T09:25:51.450Z,9.95
2023-03-20T09:28:20.480Z,10.02
2023-03-20T09:30:49.209Z,10.09
2023-03-20T09:33:18.944Z,10.16
2023-03-20T09:35:47.775Z,10.22
2023-03-20T09:38:16.164Z,10.27
2023-03-20T09:41:09.918Z,10.33
2023-03-20T09:43:54.144Z,10.43
2023-03-20T09:46:49.859Z,10.53
2023-03-20T09:49:52.973Z,10.63
2023-03-20T09:52:31.057Z,10.74
2023-03-20T09:55:02.755Z,10.84
2023-03-20T09:57:41.955Z,10.93
2023-03-20T10:00:25.112Z,11.02
2023-03-20T10:02:58.995Z,11.09
2023-03-20T10:05:36.361Z,11.16
2023-03-20T10:08:07.229Z,11.23
2023-03-20T10:10:46.429Z,11.29
2023-03-20T10:13:33.267Z,11.34
2023-03-20T10:16:08.522Z,11.40
2023-03-20T10:18:38.605Z,11.47
2023-03-20T10:21:15.906Z,11.59
2023-03-20T10:24:03.662Z,11.74
2023-03-20T10:26:34.751Z,11.86
2023-03-20T10:29:25.598Z,11.94
2023-03-20T10:32:42.074Z,12.03
2023-03-20T10:35:21.647Z,12.14
2023-03-20T10:38:13.346Z,12.23
2023-03-20T10:40:43.175Z,12.31
2023-03-20T10:43:21.780Z,12.40
2023-03-20T10:45:54.283Z,12.51
2023-03-20T10:48:41.180Z,12.60
2023-03-20T10:51:14.717Z,12.69
2023-03-20T10:53:43.318Z,12.79
2023-03-20T10:56:27.055Z,12.87
2023-03-20T10:59:04.604Z,12.91
2023-03-20T11:01:37.806Z,12.96
2023-03-20T11:04:07.628Z,13.00
2023-03-20T11:06:43.511Z,13.09
2023-03-20T11:09:21.338Z,13.17
2023-03-20T11:11:52.608Z,13.23
2023-03-20T11:14:26.115Z,13.30
2023-03-20T11:16:55.870Z,13.42
2023-03-20T11:19:24.202Z,13.54
2023-03-20T11:21:58.205Z,13.69
2023-03-20T11:24:38.578Z,13.80
2023-03-20T11:27:24.667Z,13.92
2023-03-20T11:29:53.162Z,14.01
2023-03-20T11:32:29.463Z,14.08
2023-03-20T11:35:11.126Z,14.18
2023-03-20T11:37:44.705Z,14.25
2023-03-20T11:40:12.884Z,14.36
2023-03-20T11:42:56.200Z,14.44
2023-03-20T11:45:25.823Z,14.54
2023-03-20T11:47:57.291Z,14.64
2023-03-20T11:50:38.305Z,14.73
2023-03-20T11:53:27.140Z,14.83
2023-03-20T11:56:08.489Z,14.89
2023-03-20T11:59:12.600Z,14.96
2023-03-20T12:01:52.557Z,15.09
2023-03-20T12:04:32.708Z,15.25
2023-03-20T12:07:21.158Z,15.42
2023-03-20T12:10:00.395Z,15.55
2023-03-20T12:13:13.155Z,15.67
2023-03-20T12:15:45.024Z,15.77
2023-03-20T12:18:33.034Z,15.84
2023-03-20T12:21:12.782Z,15.94
2023-03-20T12:23:48.068Z,16.06
2023-03-20T12:26:37.779Z,16.13
2023-03-20T12:29:11.281Z,16.17
2023-03-20T12:31:57.373Z,16.21
2023-03-20T12:34:38.555Z,16.28
2023-03-20T12:37:09.860Z,16.30
2023-03-20T12:39:41.585Z,16.34
2023-03-20T12:42:31.361Z,16.40
2023-03-20T12:45:18.821Z,16.31
2023-03-20T12:47:50.833Z,16.13
2023-03-20T12:50:33.463Z,16.07
2023-03-20T12:53:08.605Z,16.08
2023-03-20T12:56:05.656Z,16.08
2023-03-20T12:58:40.405Z,16.17
2023-03-20T13:01:21.056Z,16.26
2023-03-20T13:04:04.838Z,16.30
2023-03-20T13:06:55.684Z,16.26
2023-03-20T13:09:28.843Z,16.24
2023-03-20T13:12:21.452Z,16.24
2023-03-20T13:15:21.868Z,16.33
2023-03-20T13:18:04.773Z,16.94
2023-03-20T13:20:40.268Z,18.07
2023-03-20T13:23:23.582Z,19.32
2023-03-20T13:26:17.721Z,20.30
2023-03-20T13:29:01.054Z,20.18
2023-03-20T13:31:41.861Z,19.47
2023-03-20T13:34:30.051Z,18.89
2023-03-20T13:37:36.164Z,19.20
2023-03-20T13:40:13.461Z,20.21
2023-03-20T13:42:54.788Z,21.24
2023-03-20T13:45:39.668Z,22.23
2023-03-20T13:48:34.160Z,22.89
2023-03-20T13:51:14.354Z,23.66
2023-03-20T13:53:42.967Z,24.23
2023-03-20T13:56:31.994Z,24.59
2023-03-20T13:59:29.841Z,24.43
2023-03-20T14:02:13.231Z,23.66
2023-03-20T14:04:41.582Z,23.20
2023-03-20T14:07:31.444Z,22.89
2023-03-20T14:10:31.655Z,22.55
2023-03-20T14:13:20.612Z,22.23
2023-03-20T14:15:55.252Z,22.07
2023-03-20T14:18:25.099Z,22.34
2023-03-20T14:21:01.164Z,22.63
2023-03-20T14:23:34.300Z,22.42
2023-03-20T14:26:26.846Z,22.09
2023-03-20T14:28:59.739Z,21.82
2023-03-20T14:31:34.474Z,21.74
2023-03-20T14:34:18.404Z,21.70
2023-03-20T14:37:05.891Z,21.54
2023-03-20T14:39:49.159Z,21.14
2023-03-20T14:42:42.421Z,20.93
2023-03-20T14:45:42.795Z,20.96
2023-03-20T14:48:32.919Z,21.02
2023-03-20T14:51:10.023Z,20.90
2023-03-20T14:53:40.352Z,20.51
2023-03-20T14:56:14.715Z,20.02
2023-03-20T14:58:43.885Z,19.62
2023-03-20T15:01:19.721Z,19.22
2023-03-20T15:03:57.780Z,18.85
2023-03-20T15:06:27.353Z,18.51
2023-03-20T15:09:01.146Z,18.12
2023-03-20T15:11:29.486Z,17.80
2023-03-20T15:14:06.396Z,17.37
2023-03-20T15:16:36.688Z,17.14
2023-03-20T15:19:09.401Z,17.06
2023-03-20T15:21:45.047Z,16.82
2023-03-20T15:24:23.977Z,16.47
2023-03-20T15:26:53.742Z,16.10
2023-03-20T15:29:21.747Z,15.72
2023-03-20T15:32:13.021Z,15.38
2023-03-20T15:34:43.098Z,14.94
2023-03-20T15:37:16.399Z,14.54
2023-03-20T15:39:51.960Z,14.13
2023-03-20T15:42:21.751Z,13.82
2023-03-20T15:44:52.047Z,13.57
2023-03-20T15:47:22.412Z,13.36
2023-03-20T15:50:03.780Z,13.15
2023-03-20T15:52:53.416Z,12.90
2023-03-20T15:55:23.386Z,12.62
2023-03-20T15:57:54.153Z,12.36
2023-03-20T16:00:26.800Z,12.14
2023-03-20T16:02:55.426Z,11.95
2023-03-20T16:05:25.863Z,11.82
2023-03-20T16:07:54.208Z,11.68
2023-03-20T16:10:30.164Z,11.54
2023-03-20T16:12:58.420Z,11.41
2023-03-20T16:15:28.059Z,11.31
2023-03-20T16:17:57.841Z,11.22
2023-03-20T16:20:27.965Z,11.10
2023-03-20T16:23:00.231Z,10.96
2023-03-20T16:25:28.409Z,10.82
2023-03-20T16:27:56.688Z,10.72
2023-03-20T16:30:27.840Z,10.64
2023-03-20T16:33:02.531Z,10.55
2023-03-20T16:35:39.169Z,10.47
2023-03-20T16:38:40.579Z,10.35
2023-03-20T16:41:28.109Z,10.21
2023-03-20T16:43:57.126Z,10.10
2023-03-20T16:46:26.690Z,9.99
2023-03-20T16:48:59.085Z,9.87
2023-03-20T16:51:29.210Z,9.75
2023-03-20T16:53:59.524Z,9.65
2023-03-20T16:58:15.197Z,9.38
2023-03-20T17:00:46.377Z,9.44
2023-03-20T17:03:17.108Z,9.38
2023-03-20T17:05:51.723Z,9.31
2023-03-20T17:08:35.990Z,9.28
2023-03-20T17:11:10.810Z,9.19
2023-03-20T17:13:39.505Z,9.09
2023-03-20T17:16:18.005Z,9.02
2023-03-20T17:18:47.115Z,8.98
2023-03-20T17:21:16.714Z,8.94
2023-03-20T17:23:45.000Z,8.90
2023-03-20T17:26:13.180Z,8.85
2023-03-20T17:28:42.631Z,8.80
2023-03-20T17:31:15.366Z,8.73
2023-03-20T17:33:49.013Z,8.66
2023-03-20T17:36:28.700Z,8.63
2023-03-20T17:38:57.281Z,8.61
2023-03-20T17:41:25.772Z,8.59
2023-03-20T17:43:54.789Z,8.56
2023-03-20T17:46:30.829Z,8.55
2023-03-20T17:49:14.866Z,8.54
2023-03-20T17:51:43.345Z,8.52
2023-03-20T17:54:13.369Z,8.50
2023-03-20T17:56:42.676Z,8.49
2023-03-20T17:59:12.876Z,8.48
2023-03-20T18:01:42.237Z,8.44
2023-03-20T18:04:10.452Z,8.42
2023-03-20T18:06:41.518Z,8.40
2023-03-20T18:09:13.680Z,8.38
2023-03-20T18:11:41.747Z,8.34
2023-03-20T18:14:18.238Z,8.29
2023-03-20T18:16:46.646Z,8.22
2023-03-20T18:19:28.478Z,8.16
2023-03-20T18:21:57.141Z,8.10
2023-03-20T18:24:26.691Z,8.05
2023-03-20T18:26:59.990Z,8.03
2023-03-20T18:29:28.254Z,8.00
2023-03-20T18:31:56.718Z,7.97
2023-03-20T18:34:27.274Z,7.94
2023-03-20T18:36:55.973Z,7.90
2023-03-20T18:39:29.458Z,7.83
2023-03-20T18:41:57.837Z,7.80
2023-03-20T18:44:25.907Z,7.81
2023-03-20T18:46:54.398Z,7.80
2023-03-20T18:49:22.779Z,7.79
2023-03-20T18:51:54.220Z,7.75
2023-03-20T18:54:22.549Z,7.73
2023-03-20T18:56:56.610Z,7.68
2023-03-20T18:59:25.006Z,7.65
2023-03-20T19:01:53.627Z,7.60
2023-03-20T19:04:27.332Z,7.61
2023-03-20T19:06:57.397Z,7.63
2023-03-20T19:09:26.102Z,7.65
2023-03-20T19:11:55.798Z,7.65
2023-03-20T19:14:25.848Z,7.65
2023-03-20T19:16:58.495Z,7.61
2023-03-20T19:19:30.664Z,7.60
2023-03-20T19:21:59.141Z,7.57
2023-03-20T19:24:27.935Z,7.52
2023-03-20T19:26:57.250Z,7.48
2023-03-20T19:29:25.623Z,7.43
2023-03-20T19:31:54.813Z,7.38
2023-03-20T19:35:00.887Z,7.31
2023-03-20T19:37:17.638Z,7.22
2023-03-20T19:39:46.263Z,7.14
2023-03-20T19:42:44.332Z,7.08
2023-03-20T19:45:23.044Z,7.01
2023-03-20T19:47:53.625Z,6.98
2023-03-20T19:50:35.383Z,6.95
2023-03-20T19:53:05.634Z,6.91
2023-03-20T19:55:34.439Z,6.81
2023-03-20T19:58:03.396Z,6.80
2023-03-20T20:00:56.962Z,6.82
2023-03-20T20:03:24.204Z,6.83
2023-03-20T20:06:00.120Z,6.85
2023-03-20T20:08:44.757Z,6.85
2023-03-20T20:11:15.666Z,6.83
2023-03-20T20:16:33.464Z,6.79
2023-03-20T20:19:03.228Z,6.75
2023-03-20T20:22:17.141Z,6.69
2023-03-20T20:24:22.207Z,6.60
2023-03-20T20:27:14.682Z,6.51
2023-03-20T20:29:46.925Z,6.43
2023-03-20T20:32:15.876Z,6.36
2023-03-20T20:38:27.008Z,6.22
2023-03-20T20:40:25.416Z,6.13
2023-03-20T20:42:56.349Z,6.05
2023-03-20T20:45:26.549Z,5.96
2023-03-20T20:47:55.034Z,5.91
2023-03-20T20:50:25.253Z,5.88
2023-03-20T20:52:56.942Z,5.92
2023-03-20T20:55:25.769Z,5.98
2023-03-20T20:57:55.532Z,6.07
2023-03-20T21:00:37.193Z,6.15
2023-03-20T21:03:10.196Z,6.18
2023-03-20T21:05:43.350Z,6.18
2023-03-20T21:08:13.645Z,6.15
2023-03-20T21:10:44.013Z,6.12
2023-03-20T21:13:15.197Z,6.09
2023-03-20T21:15:45.686Z,6.05
2023-03-20T21:18:19.516Z,5.97
2023-03-20T21:20:47.546Z,5.91
2023-03-20T21:23:16.026Z,5.83
2023-03-20T21:25:47.842Z,5.75
2023-03-20T21:28:16.925Z,5.67
2023-03-20T21:31:12.601Z,5.58
2023-03-20T21:33:36.416Z,5.57
2023-03-20T21:36:06.131Z,5.64
2023-03-20T21:41:24.388Z,5.76
2023-03-20T21:43:52.667Z,5.80
2023-03-20T21:58:21.392Z,5.81
2023-03-20T22:03:35.148Z,5.69
2023-03-20T22:07:17.890Z,5.63
2023-03-20T22:12:30.275Z,5.46
2023-03-20T22:17:59.649Z,5.41
2023-03-20T22:26:51.402Z,5.53
2023-03-20T22:29:32.583Z,5.55
2023-03-20T22:35:12.842Z,5.57
2023-03-20T22:43:54.860Z,5.49
2023-03-20T22:46:03.409Z,5.40
2023-03-20T22:48:38.656Z,5.30
2023-03-20T22:51:08.092Z,5.24
2023-03-20T22:53:37.714Z,5.19
2023-03-20T22:56:07.519Z,5.11
2023-03-20T22:58:35.832Z,5.03
2023-03-20T23:01:04.217Z,5.04
2023-03-20T23:03:41.449Z,5.08
2023-03-20T23:06:21.316Z,5.11
2023-03-20T23:08:55.388Z,5.10
2023-03-20T23:11:26.571Z,5.10
2023-03-20T23:14:01.633Z,5.11
2023-03-20T23:16:30.971Z,5.11
2023-03-20T23:18:59.177Z,5.07
2023-03-20T23:21:32.372Z,5.03
2023-03-20T23:24:00.902Z,4.98
2023-03-20T23:26:29.136Z,4.95
2023-03-20T23:28:58.220Z,4.89
2023-03-20T23:31:27.143Z,4.80
2023-03-20T23:33:57.245Z,4.72
2023-03-20T23:36:42.493Z,4.65
2023-03-20T23:39:11.711Z,4.60
2023-03-20T23:44:30.479Z,4.58
2023-03-20T23:47:01.327Z,4.64
2023-03-20T23:49:32.155Z,4.69
2023-03-20T23:52:00.492Z,4.74
2023-03-20T23:54:28.709Z,4.78
2023-03-20T23:56:57.086Z,4.79
2023-03-20T23:59:25.569Z,4.77
